createdAt,value
2023-05-06T00:03:49.395Z,12.00
2023-05-06T00:06:17.162Z,12.00
2023-05-06T00:11:13.856Z,11.90
2023-05-06T00:18:37.777Z,11.70
2023-05-06T00:23:33.338Z,11.70
2023-05-06T00:26:00.950Z,11.70
2023-05-06T00:33:24.332Z,11.70
2023-05-06T00:35:52.834Z,11.60
2023-05-06T00:48:13.437Z,11.50
2023-05-06T00:50:41.061Z,11.60
2023-05-06T00:53:09.873Z,11.40
2023-05-06T00:55:38.860Z,11.40
2023-05-06T01:05:35.928Z,11.30
2023-05-06T01:08:13.276Z,11.30
2023-05-06T01:10:56.175Z,11.20
2023-05-06T01:14:11.405Z,11.20
2023-05-06T01:16:41.497Z,11.20
2023-05-06T01:19:29.442Z,11.20
2023-05-06T01:22:01.303Z,11.20
2023-05-06T01:24:40.620Z,11.20
2023-05-06T01:27:09.456Z,11.20
2023-05-06T01:29:41.467Z,11.20
2023-05-06T01:32:16.834Z,11.30
2023-05-06T01:35:12.153Z,11.30
2023-05-06T01:37:58.412Z,11.20
2023-05-06T01:40:28.407Z,11.20
2023-05-06T01:42:57.318Z,11.20
2023-05-06T01:45:28.596Z,11.20
2023-05-06T01:47:57.615Z,11.20
2023-05-06T01:50:26.212Z,11.20
2023-05-06T01:53:01.906Z,11.10
2023-05-06T01:55:29.929Z,11.10
2023-05-06T01:57:57.508Z,11.00
2023-05-06T02:00:26.746Z,11.00
2023-05-06T02:07:54.906Z,11.20
2023-05-06T02:12:57.833Z,11.20
2023-05-06T02:17:54.045Z,11.30
2023-05-06T02:20:21.672Z,11.20
2023-05-06T02:22:49.179Z,11.30
2023-05-06T02:27:46.156Z,11.30
2023-05-06T02:30:14.693Z,11.30
2023-05-06T02:32:42.205Z,11.40
2023-05-06T02:35:10.218Z,11.40
2023-05-06T02:37:37.911Z,11.50
2023-05-06T02:40:06.684Z,11.50
2023-05-06T02:42:35.640Z,11.50
2023-05-06T02:45:03.618Z,11.50
2023-05-06T02:47:33.390Z,11.60
2023-05-06T02:50:01.164Z,11.60
2023-05-06T02:59:52.323Z,11.70
2023-05-06T03:02:19.951Z,11.80
2023-05-06T03:04:47.536Z,11.80
2023-05-06T03:07:15.118Z,11.80
2023-05-06T03:12:11.932Z,11.80
2023-05-06T03:14:40.104Z,11.90
2023-05-06T03:17:07.870Z,11.90
2023-05-06T03:19:37.535Z,12.00
2023-05-06T03:22:07.146Z,11.90
2023-05-06T03:24:37.116Z,11.90
2023-05-06T03:29:34.917Z,11.90
2023-05-06T03:32:06.831Z,12.00
2023-05-06T03:42:10.856Z,12.00
2023-05-06T03:47:06.940Z,12.10
2023-05-06T03:49:36.026Z,12.10
2023-05-06T03:52:04.652Z,12.10
2023-05-06T03:57:01.249Z,12.10
2023-05-06T04:01:58.149Z,12.00
2023-05-06T04:04:27.318Z,11.90
2023-05-06T04:11:53.582Z,11.80
2023-05-06T04:16:49.927Z,11.70
2023-05-06T04:19:17.948Z,11.80
2023-05-06T04:21:47.122Z,11.70
2023-05-06T04:24:16.060Z,11.70
2023-05-06T04:26:43.771Z,11.80
2023-05-06T04:31:48.148Z,11.80
2023-05-06T04:34:16.676Z,11.80
2023-05-06T04:39:25.615Z,11.90
2023-05-06T04:41:53.350Z,11.90
2023-05-06T04:44:28.932Z,11.90
2023-05-06T04:51:53.024Z,12.00
2023-05-06T05:14:09.575Z,12.30
2023-05-06T05:16:38.185Z,12.40
2023-05-06T05:21:37.207Z,12.50
2023-05-06T05:24:05.825Z,12.50
2023-05-06T05:26:33.999Z,12.60
2023-05-06T05:29:01.557Z,12.50
2023-05-06T05:31:31.472Z,12.60
2023-05-06T05:34:00.275Z,12.60
2023-05-06T05:38:58.910Z,12.60
2023-05-06T05:43:56.876Z,12.70
2023-05-06T05:46:25.625Z,12.70
2023-05-06T05:48:53.310Z,12.80
2023-05-06T06:01:18.179Z,13.00
2023-05-06T06:03:47.564Z,13.00
2023-05-06T06:08:43.793Z,12.90
2023-05-06T06:11:12.960Z,13.10
2023-05-06T06:16:10.983Z,13.10
2023-05-06T06:23:35.775Z,13.20
2023-05-06T06:26:04.660Z,13.30
2023-05-06T06:28:33.802Z,13.30
2023-05-06T06:31:02.103Z,13.30
2023-05-06T06:33:29.651Z,13.40
2023-05-06T06:35:58.314Z,13.40
2023-05-06T06:38:26.028Z,13.50
2023-05-06T06:40:54.422Z,13.50
2023-05-06T06:43:23.630Z,13.60
2023-05-06T06:45:57.352Z,13.70
2023-05-06T06:48:25.256Z,13.80
2023-05-06T06:53:20.928Z,14.00
2023-05-06T07:00:45.125Z,14.20
2023-05-06T07:03:15.865Z,14.30
2023-05-06T07:05:44.779Z,14.40
2023-05-06T07:13:09.435Z,14.80
2023-05-06T07:15:37.045Z,14.90
2023-05-06T07:25:31.358Z,15.30
2023-05-06T07:27:59.075Z,15.50
2023-05-06T07:30:26.899Z,15.50
2023-05-06T07:45:15.253Z,15.70
2023-05-06T07:52:38.931Z,16.00
2023-05-06T07:55:09.810Z,16.00
2023-05-06T07:57:37.957Z,16.10
2023-05-06T08:00:06.264Z,16.00
2023-05-06T08:02:44.315Z,16.00
2023-05-06T08:05:13.032Z,16.10
2023-05-06T08:07:41.965Z,16.10
2023-05-06T08:10:10.396Z,16.10
2023-05-06T08:12:38.326Z,16.10
2023-05-06T08:34:51.171Z,16.20
2023-05-06T08:44:43.883Z,16.50
2023-05-06T08:47:11.416Z,16.40
2023-05-06T08:49:39.067Z,16.40
2023-05-06T08:54:36.133Z,16.30
2023-05-06T08:57:06.229Z,16.30
2023-05-06T08:59:34.581Z,16.40
2023-05-06T09:04:31.124Z,16.30
2023-05-06T09:06:59.530Z,16.20
2023-05-06T09:09:27.074Z,16.10
2023-05-06T09:14:25.289Z,16.00
2023-05-06T09:16:53.586Z,15.90
2023-05-06T09:19:22.547Z,15.90
2023-05-06T09:21:51.500Z,16.00
2023-05-06T09:24:19.311Z,16.10
2023-05-06T09:26:47.464Z,16.10
2023-05-06T09:29:15.060Z,16.20
2023-05-06T09:31:44.570Z,16.10
2023-05-06T09:34:13.141Z,16.10
2023-05-06T09:41:37.900Z,16.00
2023-05-06T09:46:33.944Z,15.80
2023-05-06T09:49:03.845Z,15.80
2023-05-06T09:54:01.117Z,15.60
2023-05-06T09:56:30.473Z,15.50
2023-05-06T09:59:01.471Z,15.40
2023-05-06T10:01:36.817Z,15.40
2023-05-06T10:04:09.083Z,15.40
2023-05-06T10:06:39.612Z,15.40
2023-05-06T10:09:10.680Z,15.30
2023-05-06T10:11:39.387Z,15.30
2023-05-06T10:14:07.261Z,15.30
2023-05-06T10:16:36.716Z,15.30
2023-05-06T10:19:06.837Z,15.30
2023-05-06T10:21:38.065Z,15.20
2023-05-06T10:24:09.132Z,15.20
2023-05-06T10:26:38.036Z,15.10
2023-05-06T10:29:10.001Z,15.10
2023-05-06T10:31:43.497Z,15.20
2023-05-06T10:34:11.302Z,15.20
2023-05-06T10:36:40.577Z,15.10
2023-05-06T10:39:10.246Z,15.20
2023-05-06T10:44:07.291Z,15.10
2023-05-06T10:46:59.843Z,15.10
2023-05-06T10:49:27.899Z,15.10
2023-05-06T10:52:16.980Z,15.10
2023-05-06T10:54:52.194Z,15.20
2023-05-06T11:02:24.100Z,15.20
2023-05-06T11:04:53.130Z,15.20
2023-05-06T11:07:24.574Z,15.30
2023-05-06T11:09:56.606Z,15.50
2023-05-06T11:12:45.962Z,15.50
2023-05-06T11:15:40.964Z,15.60
2023-05-06T11:18:31.859Z,15.90
2023-05-06T11:21:02.355Z,16.00
2023-05-06T11:23:42.151Z,16.10
2023-05-06T11:26:11.182Z,16.20
2023-05-06T11:28:47.246Z,16.20
2023-05-06T11:31:16.074Z,17.20
2023-05-06T11:33:51.303Z,16.10
2023-05-06T11:36:20.711Z,16.00
2023-05-06T11:38:53.065Z,16.10
2023-05-06T11:41:23.490Z,16.00
2023-05-06T11:43:52.666Z,16.00
2023-05-06T11:46:22.199Z,15.90
2023-05-06T11:48:50.570Z,15.80
2023-05-06T11:51:24.630Z,15.70
2023-05-06T11:54:09.675Z,15.70
2023-05-06T11:56:51.640Z,15.70
2023-05-06T11:59:29.761Z,15.70
2023-05-06T12:02:07.948Z,15.80
2023-05-06T12:04:46.593Z,16.10
2023-05-06T12:07:16.492Z,16.50
2023-05-06T12:09:47.583Z,16.80
2023-05-06T12:12:22.512Z,17.00
2023-05-06T12:14:52.530Z,17.30
2023-05-06T12:17:20.641Z,17.70
2023-05-06T12:19:48.335Z,18.10
2023-05-06T12:22:26.631Z,18.30
2023-05-06T12:27:35.972Z,18.70
2023-05-06T12:37:33.417Z,18.40
2023-05-06T12:47:26.014Z,17.00
2023-05-06T12:49:59.158Z,16.70
2023-05-06T12:52:29.915Z,16.60
2023-05-06T12:54:57.900Z,16.50
2023-05-06T12:57:26.132Z,16.50
2023-05-06T12:59:53.957Z,16.50
2023-05-06T13:02:21.532Z,16.40
2023-05-06T13:04:49.775Z,16.20
2023-05-06T13:07:17.320Z,16.10
2023-05-06T13:19:37.331Z,16.00
2023-05-06T13:29:29.836Z,15.70
2023-05-06T13:31:57.836Z,15.60
2023-05-06T13:34:26.111Z,15.70
2023-05-06T13:36:54.787Z,15.80
2023-05-06T13:39:22.942Z,15.90
2023-05-06T13:41:50.717Z,15.90
2023-05-06T13:44:19.465Z,16.00
2023-05-06T13:49:15.562Z,16.20
2023-05-06T13:51:43.040Z,16.30
2023-05-06T13:59:08.163Z,16.60
2023-05-06T14:01:36.402Z,16.50
2023-05-06T14:04:04.491Z,16.40
2023-05-06T14:09:00.105Z,16.30
2023-05-06T14:11:27.669Z,16.30
2023-05-06T14:13:57.144Z,16.30
2023-05-06T14:21:21.660Z,16.20
2023-05-06T14:36:08.727Z,16.30
2023-05-06T14:41:04.120Z,16.30
2023-05-06T14:43:31.679Z,16.30
2023-05-06T14:45:59.191Z,16.40
2023-05-06T14:51:09.587Z,16.40
2023-05-06T14:56:09.375Z,16.40
2023-05-06T15:08:29.029Z,16.60
2023-05-06T15:13:24.512Z,16.80
2023-05-06T15:18:20.009Z,16.70
2023-05-06T15:28:11.423Z,15.90
2023-05-06T15:30:39.311Z,15.80
2023-05-06T15:35:36.363Z,15.50
2023-05-06T15:38:04.306Z,15.30
2023-05-06T15:50:32.879Z,14.80
2023-05-06T15:53:02.316Z,14.70
2023-05-06T15:55:34.534Z,14.70
2023-05-06T16:15:26.540Z,14.70
2023-05-06T16:22:50.645Z,14.70
2023-05-06T16:25:18.490Z,14.60
2023-05-06T16:27:46.333Z,14.60
2023-05-06T16:30:14.120Z,14.60
2023-05-06T16:32:41.689Z,14.60
2023-05-06T16:35:09.671Z,14.60
2023-05-06T16:37:37.221Z,14.60
2023-05-06T16:47:32.526Z,14.60
2023-05-06T16:54:58.357Z,14.60
2023-05-06T17:04:49.864Z,14.50
2023-05-06T17:09:45.216Z,14.60
2023-05-06T17:12:12.987Z,14.60
2023-05-06T17:14:41.562Z,14.60
2023-05-06T17:19:37.105Z,14.60
2023-05-06T17:22:04.742Z,14.50
2023-05-06T17:27:00.261Z,14.50
2023-05-06T17:29:28.631Z,14.50
2023-05-06T17:31:56.199Z,14.60
2023-05-06T17:36:51.551Z,14.60
2023-05-06T17:39:19.175Z,14.60
2023-05-06T17:41:46.848Z,14.60
2023-05-06T17:44:17.495Z,14.70
2023-05-06T17:46:48.202Z,14.70
2023-05-06T17:49:15.876Z,14.70
2023-05-06T17:51:45.554Z,14.60
2023-05-06T17:54:14.210Z,14.70
2023-05-06T17:56:41.928Z,14.70
2023-05-06T17:59:09.508Z,14.70
2023-05-06T18:01:37.111Z,14.70
2023-05-06T18:04:04.915Z,14.70
2023-05-06T18:06:32.614Z,14.70
2023-05-06T18:09:00.159Z,14.70
2023-05-06T18:11:27.833Z,14.80
2023-05-06T18:16:23.691Z,14.80
2023-05-06T18:18:51.280Z,14.70
2023-05-06T18:21:18.853Z,14.70
2023-05-06T18:23:46.370Z,14.70
2023-05-06T18:26:19.077Z,14.70
2023-05-06T18:28:52.189Z,14.70
2023-05-06T18:31:20.529Z,14.70
2023-05-06T18:33:48.111Z,14.70
2023-05-06T18:36:15.865Z,14.70
2023-05-06T18:41:11.432Z,14.70
2023-05-06T18:43:39.094Z,14.70
2023-05-06T18:46:06.817Z,14.70
2023-05-06T18:48:34.447Z,14.70
2023-05-06T18:51:17.064Z,14.70
2023-05-06T18:53:45.159Z,14.70
2023-05-06T18:56:14.069Z,14.70
2023-05-06T18:58:41.988Z,14.80
2023-05-06T19:01:10.781Z,14.80
2023-05-06T19:03:38.975Z,14.70
2023-05-06T19:06:10.685Z,14.70
2023-05-06T19:08:38.848Z,14.70
2023-05-06T19:13:34.395Z,14.70
2023-05-06T19:16:02.292Z,14.70
2023-05-06T19:18:29.912Z,14.70
2023-05-06T19:20:57.452Z,14.70
2023-05-06T19:23:25.266Z,14.70
2023-05-06T19:25:52.868Z,14.70
2023-05-06T19:28:20.800Z,14.70
2023-05-06T19:30:48.743Z,14.80
2023-05-06T19:33:16.583Z,14.70
2023-05-06T19:35:44.194Z,14.70
2023-05-06T19:38:12.011Z,14.70
2023-05-06T19:40:39.602Z,14.70
2023-05-06T19:43:07.207Z,14.70
2023-05-06T19:45:34.753Z,14.70
2023-05-06T19:48:04.241Z,14.70
2023-05-06T19:50:33.407Z,14.60
2023-05-06T19:53:01.135Z,14.60
2023-05-06T19:55:28.692Z,14.60
2023-05-06T19:57:56.998Z,14.50
2023-05-06T20:00:27.258Z,14.50
2023-05-06T20:02:59.067Z,14.50
2023-05-06T20:05:31.943Z,14.50
2023-05-06T20:08:00.010Z,14.40
2023-05-06T20:10:28.518Z,14.40
2023-05-06T20:12:57.757Z,14.40
2023-05-06T20:15:26.735Z,14.40
2023-05-06T20:17:54.799Z,14.40
2023-05-06T20:20:22.598Z,14.40
2023-05-06T20:22:50.335Z,14.40
2023-05-06T20:25:18.749Z,14.40
2023-05-06T20:27:46.480Z,14.40
2023-05-06T20:30:14.368Z,14.40
2023-05-06T20:32:42.083Z,14.90
2023-05-06T20:35:10.151Z,14.30
2023-05-06T20:37:38.160Z,14.40
2023-05-06T20:40:07.863Z,14.40
2023-05-06T20:42:35.805Z,14.40
2023-05-06T20:45:05.788Z,14.40
2023-05-06T20:47:33.587Z,14.40
2023-05-06T20:50:01.697Z,14.30
2023-05-06T20:52:29.278Z,14.40
2023-05-06T20:54:58.096Z,14.30
2023-05-06T20:57:25.842Z,14.40
2023-05-06T20:59:53.327Z,14.30
2023-05-06T21:02:21.225Z,14.30
2023-05-06T21:07:17.865Z,14.30
2023-05-06T21:12:13.815Z,14.30
2023-05-06T21:14:41.476Z,14.30
2023-05-06T21:17:09.072Z,14.40
2023-05-06T21:19:36.664Z,14.30
2023-05-06T21:22:04.335Z,14.30
2023-05-06T21:24:31.890Z,14.30
2023-05-06T21:27:00.310Z,14.30
2023-05-06T21:29:27.969Z,14.30
2023-05-06T21:31:55.569Z,14.30
2023-05-06T21:34:23.232Z,14.30
2023-05-06T21:36:50.840Z,14.30
2023-05-06T21:39:18.383Z,14.30
2023-05-06T21:41:46.152Z,14.30
2023-05-06T21:44:13.674Z,14.30
2023-05-06T21:46:41.311Z,14.40
2023-05-06T21:49:13.492Z,14.30
2023-05-06T21:51:41.264Z,14.30
2023-05-06T21:54:08.808Z,14.30
2023-05-06T21:56:36.625Z,14.20
2023-05-06T21:59:04.925Z,14.30
2023-05-06T22:01:32.528Z,14.20
2023-05-06T22:04:00.695Z,14.20
2023-05-06T22:06:29.112Z,14.20
2023-05-06T22:08:56.605Z,14.30
2023-05-06T22:11:24.817Z,14.20
2023-05-06T22:13:52.389Z,14.20
2023-05-06T22:16:20.014Z,14.20
2023-05-06T22:18:47.587Z,14.20
2023-05-06T22:21:15.291Z,14.20
2023-05-06T22:23:42.833Z,14.20
2023-05-06T22:26:10.608Z,14.20
2023-05-06T22:28:38.116Z,14.20
2023-05-06T22:31:05.889Z,14.10
2023-05-06T22:33:33.574Z,14.10
2023-05-06T22:36:01.247Z,14.10
2023-05-06T22:38:28.734Z,14.00
2023-05-06T22:40:56.263Z,14.00
2023-05-06T22:43:23.745Z,14.00
2023-05-06T22:45:51.467Z,14.00
2023-05-06T22:48:18.993Z,14.00
2023-05-06T22:50:46.749Z,13.90
2023-05-06T22:53:15.625Z,13.90
2023-05-06T22:55:43.540Z,13.90
2023-05-06T22:58:11.154Z,13.90
2023-05-06T23:00:38.838Z,13.90
2023-05-06T23:03:06.390Z,13.90
2023-05-06T23:05:34.137Z,13.90
2023-05-06T23:08:01.684Z,13.90
2023-05-06T23:10:29.296Z,13.90
2023-05-06T23:13:00.958Z,13.90
2023-05-06T23:15:29.065Z,13.90
2023-05-06T23:17:56.658Z,13.80
2023-05-06T23:20:24.252Z,13.80
2023-05-06T23:22:52.045Z,13.80
2023-05-06T23:25:19.902Z,13.80
2023-05-06T23:27:47.374Z,13.80
2023-05-06T23:30:15.040Z,13.80
2023-05-06T23:32:42.878Z,13.80
2023-05-06T23:35:10.701Z,13.80
2023-05-06T23:37:38.394Z,13.80
2023-05-06T23:40:07.231Z,13.80
2023-05-06T23:42:34.728Z,13.80
2023-05-06T23:45:02.324Z,13.80
2023-05-06T23:47:29.969Z,13.80
2023-05-06T23:49:58.779Z,13.80
2023-05-06T23:52:26.818Z,13.80
2023-05-06T23:54:54.401Z,13.80
2023-05-06T23:57:21.926Z,13.90
2023-05-06T23:59:49.480Z,13.90
